createdAt,value
2018-09-11T00:02:10.047Z,17.09
2018-09-11T00:04:37.583Z,17.07
2018-09-11T00:07:05.090Z,17.07
2018-09-11T00:09:32.932Z,17.06
2018-09-11T00:12:00.489Z,17.05
2018-09-11T00:14:28.049Z,17.02
2018-09-11T00:16:55.586Z,16.99
2018-09-11T00:22:02.162Z,16.94
2018-09-11T00:24:30.226Z,16.92
2018-09-11T00:26:57.788Z,16.88
2018-09-11T00:29:25.348Z,16.84
2018-09-11T00:31:53.935Z,16.81
2018-09-11T00:34:22.035Z,16.79
2018-09-11T00:36:50.373Z,16.74
2018-09-11T00:39:17.877Z,16.71
2018-09-11T00:41:45.685Z,16.66
2018-09-11T00:44:13.244Z,16.62
2018-09-11T00:46:40.761Z,16.59
2018-09-11T00:49:09.306Z,16.53
2018-09-11T00:51:37.249Z,16.49
2018-09-11T00:54:06.290Z,16.45
2018-09-11T00:56:33.862Z,16.42
2018-09-11T00:59:01.414Z,16.38
2018-09-11T01:01:29.340Z,16.34
2018-09-11T01:03:57.692Z,16.31
2018-09-11T01:06:25.185Z,16.29
2018-09-11T01:08:53.331Z,16.28
2018-09-11T01:11:21.188Z,16.26
2018-09-11T01:13:49.271Z,16.27
2018-09-11T01:16:16.736Z,16.27
2018-09-11T01:18:45.369Z,16.28
2018-09-11T01:21:13.183Z,16.29
2018-09-11T01:23:41.337Z,16.30
2018-09-11T01:26:08.823Z,16.31
2018-09-11T01:28:36.634Z,16.33
2018-09-11T01:31:04.109Z,16.35
2018-09-11T01:33:31.561Z,16.39
2018-09-11T01:35:59.115Z,16.41
2018-09-11T01:38:26.970Z,16.45
2018-09-11T01:40:54.434Z,16.49
2018-09-11T01:43:21.931Z,16.53
2018-09-11T01:45:49.375Z,16.57
2018-09-11T01:48:18.280Z,16.58
2018-09-11T01:50:45.764Z,16.61
2018-09-11T01:53:13.210Z,16.63
2018-09-11T01:55:41.020Z,16.65
2018-09-11T01:58:09.331Z,16.67
2018-09-11T02:00:36.811Z,16.65
2018-09-11T02:03:04.293Z,16.66
2018-09-11T02:05:32.150Z,16.67
2018-09-11T02:07:59.600Z,16.66
2018-09-11T02:10:27.091Z,16.66
2018-09-11T02:12:55.196Z,16.64
2018-09-11T02:15:23.162Z,16.66
2018-09-11T02:17:50.689Z,16.65
2018-09-11T02:20:18.766Z,16.64
2018-09-11T02:22:46.252Z,16.63
2018-09-11T02:25:15.171Z,16.62
2018-09-11T02:27:42.699Z,16.60
2018-09-11T02:30:10.472Z,16.58
2018-09-11T02:32:38.213Z,16.53
2018-09-11T02:35:07.009Z,16.50
2018-09-11T02:37:34.492Z,16.44
2018-09-11T02:40:03.464Z,16.41
2018-09-11T02:42:30.951Z,16.37
2018-09-11T02:44:58.471Z,16.32
2018-09-11T02:47:25.993Z,16.30
2018-09-11T02:49:53.932Z,16.27
2018-09-11T02:52:21.470Z,16.23
2018-09-11T02:54:49.053Z,16.20
2018-09-11T02:57:17.859Z,16.18
2018-09-11T02:59:45.403Z,16.17
2018-09-11T03:02:12.965Z,16.15
2018-09-11T03:04:41.615Z,16.14
2018-09-11T03:07:09.149Z,16.15
2018-09-11T03:09:36.670Z,16.15
2018-09-11T03:12:04.535Z,16.14
2018-09-11T03:14:32.096Z,16.15
2018-09-11T03:17:00.223Z,16.14
2018-09-11T03:19:28.257Z,16.14
2018-09-11T03:21:55.873Z,16.12
2018-09-11T03:24:23.401Z,16.10
2018-09-11T03:26:50.915Z,16.11
2018-09-11T03:29:18.795Z,16.10
2018-09-11T03:31:47.274Z,16.10
2018-09-11T03:34:17.531Z,16.07
2018-09-11T03:36:45.046Z,16.04
2018-09-11T03:39:13.967Z,16.00
2018-09-11T03:41:41.491Z,15.99
2018-09-11T03:44:09.075Z,15.97
2018-09-11T03:46:36.590Z,15.95
2018-09-11T03:49:04.675Z,15.99
2018-09-11T03:51:32.271Z,15.97
2018-09-11T03:54:00.801Z,15.98
2018-09-11T03:56:28.717Z,15.98
2018-09-11T03:58:56.249Z,16.01
2018-09-11T04:01:23.798Z,16.04
2018-09-11T04:03:51.339Z,16.04
2018-09-11T04:06:18.864Z,16.05
2018-09-11T04:08:46.383Z,16.08
2018-09-11T04:11:14.334Z,16.11
2018-09-11T04:13:41.910Z,16.17
2018-09-11T04:16:09.465Z,16.22
2018-09-11T04:18:36.976Z,16.25
2018-09-11T04:21:06.733Z,16.29
2018-09-11T04:23:35.322Z,16.33
2018-09-11T04:26:03.700Z,16.35
2018-09-11T04:28:31.218Z,16.39
2018-09-11T04:30:59.059Z,16.45
2018-09-11T04:33:26.665Z,16.51
2018-09-11T04:35:54.370Z,16.57
2018-09-11T04:38:22.449Z,16.60
2018-09-11T04:40:50.696Z,16.64
2018-09-11T04:43:19.883Z,16.68
2018-09-11T04:45:47.783Z,16.71
2018-09-11T04:48:15.321Z,16.74
2018-09-11T04:50:42.921Z,16.77
2018-09-11T04:53:10.924Z,16.81
2018-09-11T04:55:38.718Z,16.83
2018-09-11T04:58:06.529Z,16.85
2018-09-11T05:00:34.434Z,16.86
2018-09-11T05:03:02.326Z,16.88
2018-09-11T05:05:29.892Z,16.89
2018-09-11T05:07:58.004Z,16.91
2018-09-11T05:10:25.526Z,16.92
2018-09-11T05:12:53.066Z,16.95
2018-09-11T05:15:21.840Z,16.96
2018-09-11T05:17:49.465Z,16.97
2018-09-11T05:20:18.073Z,16.98
2018-09-11T05:22:46.140Z,16.99
2018-09-11T05:25:13.697Z,17.00
2018-09-11T05:27:41.526Z,17.01
2018-09-11T05:30:10.214Z,17.02
2018-09-11T05:32:38.617Z,17.03
2018-09-11T05:35:07.281Z,17.02
2018-09-11T05:37:35.399Z,17.02
2018-09-11T05:40:02.909Z,17.01
2018-09-11T05:42:30.509Z,17.01
2018-09-11T05:45:00.381Z,17.01
2018-09-11T05:47:28.964Z,17.01
2018-09-11T05:49:56.506Z,17.01
2018-09-11T05:52:24.465Z,17.04
2018-09-11T05:54:52.161Z,17.06
2018-09-11T05:57:20.588Z,17.07
2018-09-11T05:59:48.565Z,17.07
2018-09-11T06:02:16.734Z,17.08
2018-09-11T06:04:44.250Z,17.10
2018-09-11T06:07:12.282Z,17.12
2018-09-11T06:09:39.994Z,17.14
2018-09-11T06:12:07.529Z,17.15
2018-09-11T06:14:35.359Z,17.17
2018-09-11T06:17:04.096Z,17.18
2018-09-11T06:19:31.652Z,17.20
2018-09-11T06:22:00.446Z,17.23
2018-09-11T06:24:28.563Z,17.28
2018-09-11T06:26:57.015Z,17.36
2018-09-11T06:29:27.108Z,17.45
2018-09-11T06:31:54.670Z,17.53
2018-09-11T06:34:22.258Z,17.62
2018-09-11T06:36:50.187Z,17.68
2018-09-11T06:39:18.732Z,17.69
2018-09-11T06:41:47.081Z,17.70
2018-09-11T06:44:15.031Z,17.72
2018-09-11T06:46:42.600Z,17.74
2018-09-11T06:49:11.293Z,17.78
2018-09-11T06:51:39.394Z,17.81
2018-09-11T06:54:06.981Z,17.83
2018-09-11T06:56:35.518Z,17.84
2018-09-11T06:59:03.596Z,17.81
2018-09-11T07:01:32.075Z,17.79
2018-09-11T07:03:59.605Z,17.78
2018-09-11T07:06:27.109Z,17.79
2018-09-11T07:08:55.638Z,17.83
2018-09-11T07:11:23.549Z,17.91
2018-09-11T07:13:51.088Z,17.97
2018-09-11T07:16:18.739Z,18.07
2018-09-11T07:18:46.699Z,18.16
2018-09-11T07:21:14.274Z,18.29
2018-09-11T07:23:41.796Z,18.40
2018-09-11T07:26:09.744Z,18.47
2018-09-11T07:28:37.339Z,18.56
2018-09-11T07:31:04.950Z,18.63
2018-09-11T07:33:32.977Z,18.69
2018-09-11T07:36:00.497Z,18.77
2018-09-11T07:41:33.210Z,18.87
2018-09-11T07:44:01.325Z,18.96
2018-09-11T07:46:29.202Z,19.07
2018-09-11T07:48:56.723Z,19.15
2018-09-11T07:51:24.301Z,19.20
2018-09-11T07:53:52.194Z,19.25
2018-09-11T07:56:20.851Z,19.29
2018-09-11T07:58:48.386Z,19.32
2018-09-11T08:01:17.111Z,19.38
2018-09-11T08:03:45.267Z,19.46
2018-09-11T08:06:14.319Z,19.55
2018-09-11T08:08:43.810Z,19.66
2018-09-11T08:11:11.390Z,19.75
2018-09-11T08:13:41.225Z,19.82
2018-09-11T08:16:09.045Z,19.87
2018-09-11T08:18:36.621Z,19.94
2018-09-11T08:21:07.116Z,20.02
2018-09-11T08:23:35.545Z,20.10
2018-09-11T08:26:03.106Z,20.16
2018-09-11T08:28:30.630Z,20.24
2018-09-11T08:30:58.494Z,20.27
2018-09-11T08:33:26.078Z,20.34
2018-09-11T08:35:53.863Z,20.43
2018-09-11T08:38:22.646Z,20.53
2018-09-11T08:40:50.325Z,20.62
2018-09-11T08:43:17.850Z,20.67
2018-09-11T08:45:45.846Z,20.69
2018-09-11T08:48:14.331Z,20.78
2018-09-11T08:50:41.828Z,20.90
2018-09-11T08:53:10.420Z,21.06
2018-09-11T08:55:37.979Z,21.19
2018-09-11T08:58:06.318Z,21.24
2018-09-11T09:00:34.156Z,21.33
2018-09-11T09:03:01.763Z,21.49
2018-09-11T09:05:29.847Z,21.51
2018-09-11T09:07:58.633Z,21.59
2018-09-11T09:10:26.256Z,21.69
2018-09-11T09:12:54.460Z,21.77
2018-09-11T09:15:22.354Z,21.82
2018-09-11T09:17:53.683Z,21.92
2018-09-11T09:20:22.007Z,22.08
2018-09-11T09:22:50.781Z,22.18
2018-09-11T09:25:18.372Z,22.26
2018-09-11T09:27:45.900Z,22.43
2018-09-11T09:30:17.536Z,22.55
2018-09-11T09:32:46.578Z,22.60
2018-09-11T09:35:15.254Z,22.70
2018-09-11T09:37:43.238Z,22.72
2018-09-11T09:40:10.819Z,22.64
2018-09-11T09:42:40.257Z,22.78
2018-09-11T09:45:11.054Z,23.11
2018-09-11T09:47:38.609Z,23.69
2018-09-11T09:50:07.077Z,24.21
2018-09-11T09:52:35.976Z,24.59
2018-09-11T09:55:03.686Z,24.89
2018-09-11T09:57:31.324Z,25.28
2018-09-11T09:59:59.527Z,25.52
2018-09-11T10:02:28.283Z,25.83
2018-09-11T10:04:56.953Z,25.97
2018-09-11T10:07:25.237Z,26.37
2018-09-11T10:09:53.685Z,26.70
2018-09-11T10:12:22.893Z,26.76
2018-09-11T10:14:51.004Z,26.90
2018-09-11T10:17:21.313Z,26.99
2018-09-11T10:19:48.837Z,27.25
2018-09-11T10:22:17.395Z,27.69
2018-09-11T10:24:45.237Z,27.72
2018-09-11T10:27:13.796Z,27.89
2018-09-11T10:29:44.039Z,28.01
2018-09-11T10:32:11.596Z,28.16
2018-09-11T10:34:39.820Z,28.44
2018-09-11T10:37:08.749Z,28.88
2018-09-11T10:39:37.161Z,29.34
2018-09-11T10:42:04.739Z,29.49
2018-09-11T10:44:36.747Z,29.43
2018-09-11T10:47:05.502Z,29.44
2018-09-11T10:49:33.097Z,29.77
2018-09-11T10:52:01.747Z,29.96
2018-09-11T10:54:30.043Z,30.22
2018-09-11T10:56:58.469Z,30.47
2018-09-11T10:59:26.465Z,30.53
2018-09-11T11:01:54.055Z,30.50
2018-09-11T11:04:22.891Z,30.45
2018-09-11T11:06:51.344Z,30.44
2018-09-11T11:09:18.946Z,30.53
2018-09-11T11:11:46.526Z,30.58
2018-09-11T11:14:15.428Z,30.59
2018-09-11T11:16:43.828Z,30.67
2018-09-11T11:19:11.503Z,30.82
2018-09-11T11:21:39.532Z,30.97
2018-09-11T11:24:07.082Z,31.41
2018-09-11T11:26:35.775Z,31.73
2018-09-11T11:29:04.690Z,31.75
2018-09-11T11:31:32.459Z,31.53
2018-09-11T11:34:00.478Z,31.75
2018-09-11T11:36:32.020Z,31.89
2018-09-11T11:38:59.578Z,31.96
2018-09-11T11:41:28.159Z,31.99
2018-09-11T11:43:55.854Z,32.08
2018-09-11T11:46:23.429Z,32.18
2018-09-11T11:48:51.386Z,32.23
2018-09-11T11:51:19.783Z,32.16
2018-09-11T11:53:47.415Z,32.08
2018-09-11T11:56:18.548Z,32.22
2018-09-11T11:58:46.085Z,32.29
2018-09-11T12:01:16.480Z,32.06
2018-09-11T12:03:46.983Z,32.22
2018-09-11T12:06:15.315Z,32.51
2018-09-11T12:08:42.910Z,32.58
2018-09-11T12:11:10.466Z,32.60
2018-09-11T12:13:39.673Z,32.78
2018-09-11T12:16:08.507Z,32.91
2018-09-11T12:18:36.083Z,32.76
2018-09-11T12:21:03.912Z,32.78
2018-09-11T12:23:32.731Z,32.71
2018-09-11T12:26:00.429Z,32.62
2018-09-11T12:28:29.830Z,32.56
2018-09-11T12:30:57.767Z,32.40
2018-09-11T12:33:25.589Z,32.49
2018-09-11T12:35:56.602Z,32.94
2018-09-11T12:38:24.593Z,33.36
2018-09-11T12:40:52.141Z,33.73
2018-09-11T12:43:19.707Z,33.79
2018-09-11T12:45:48.332Z,33.46
2018-09-11T12:48:20.620Z,33.02
2018-09-11T12:50:49.075Z,32.35
2018-09-11T12:53:17.220Z,31.67
2018-09-11T12:55:45.379Z,31.18
2018-09-11T12:58:14.092Z,30.60
2018-09-11T13:00:41.734Z,30.05
2018-09-11T13:03:10.297Z,29.50
2018-09-11T13:05:38.298Z,29.09
2018-09-11T13:08:11.511Z,28.83
2018-09-11T13:10:43.674Z,28.64
2018-09-11T13:13:11.696Z,28.42
2018-09-11T13:15:39.518Z,28.29
2018-09-11T13:18:07.082Z,28.22
2018-09-11T13:20:36.675Z,28.23
2018-09-11T13:23:05.077Z,28.26
2018-09-11T13:25:33.907Z,28.24
2018-09-11T13:28:02.680Z,28.22
2018-09-11T13:30:31.811Z,28.13
2018-09-11T13:32:59.375Z,28.03
2018-09-11T13:35:27.725Z,27.89
2018-09-11T13:37:55.297Z,27.82
2018-09-11T13:40:22.888Z,27.77
2018-09-11T13:42:51.019Z,27.80
2018-09-11T13:45:18.599Z,27.87
2018-09-11T13:47:46.370Z,27.91
2018-09-11T13:50:14.924Z,27.90
2018-09-11T13:52:44.554Z,27.85
2018-09-11T13:55:12.934Z,27.80
2018-09-11T13:57:44.645Z,27.76
2018-09-11T14:00:14.242Z,27.75
2018-09-11T14:02:43.887Z,27.64
2018-09-11T14:05:11.809Z,27.60
2018-09-11T14:07:40.338Z,27.68
2018-09-11T14:10:08.461Z,27.73
2018-09-11T14:12:38.263Z,27.73
2018-09-11T14:15:05.945Z,27.76
2018-09-11T14:17:34.831Z,27.77
2018-09-11T14:20:02.426Z,27.78
2018-09-11T14:22:29.936Z,27.85
2018-09-11T14:24:57.901Z,27.90
2018-09-11T14:27:25.511Z,28.02
2018-09-11T14:29:54.863Z,28.18
2018-09-11T14:32:23.834Z,28.24
2018-09-11T14:34:51.455Z,28.23
2018-09-11T14:37:20.196Z,28.19
2018-09-11T14:39:49.849Z,28.19
2018-09-11T14:42:22.256Z,28.13
2018-09-11T14:44:52.704Z,28.12
2018-09-11T14:47:21.517Z,28.05
2018-09-11T14:49:53.715Z,28.04
2018-09-11T14:52:23.303Z,28.06
2018-09-11T14:54:52.284Z,28.13
2018-09-11T14:57:19.931Z,28.21
2018-09-11T14:59:47.596Z,28.26
2018-09-11T15:05:04.791Z,28.47
2018-09-11T15:07:32.919Z,28.64
2018-09-11T15:10:01.637Z,28.78
2018-09-11T15:12:32.824Z,28.89
2018-09-11T15:15:01.509Z,29.05
2018-09-11T15:17:29.890Z,29.21
2018-09-11T15:19:58.303Z,29.18
2018-09-11T15:22:29.107Z,29.20
2018-09-11T15:24:56.629Z,29.22
2018-09-11T15:27:25.470Z,29.23
2018-09-11T15:29:55.987Z,29.28
2018-09-11T15:32:24.222Z,29.51
2018-09-11T15:34:52.758Z,29.68
2018-09-11T15:37:20.762Z,29.95
2018-09-11T15:39:48.382Z,30.25
2018-09-11T15:42:16.555Z,30.43
2018-09-11T15:44:44.481Z,30.65
2018-09-11T15:47:12.804Z,30.78
2018-09-11T15:49:40.408Z,30.85
2018-09-11T15:52:08.495Z,30.88
2018-09-11T15:54:37.343Z,30.92
2018-09-11T15:57:11.212Z,30.93
2018-09-11T15:59:41.423Z,30.55
2018-09-11T16:02:10.154Z,29.85
2018-09-11T16:04:38.918Z,29.16
2018-09-11T16:07:09.334Z,28.64
2018-09-11T16:09:36.950Z,28.22
2018-09-11T16:12:04.503Z,27.91
2018-09-11T16:14:32.459Z,27.67
2018-09-11T16:17:06.176Z,27.47
2018-09-11T16:19:35.369Z,27.25
2018-09-11T16:22:05.435Z,27.06
2018-09-11T16:24:33.085Z,26.91
2018-09-11T16:27:01.262Z,26.78
2018-09-11T16:29:30.493Z,26.67
2018-09-11T16:31:58.634Z,26.57
2018-09-11T16:34:26.175Z,26.46
2018-09-11T16:36:59.256Z,26.37
2018-09-11T16:39:30.284Z,26.30
2018-09-11T16:42:01.948Z,26.23
2018-09-11T16:44:36.275Z,26.17
2018-09-11T16:47:08.510Z,26.12
2018-09-11T16:49:36.857Z,26.08
2018-09-11T16:52:08.500Z,26.03
2018-09-11T16:54:39.738Z,26.00
2018-09-11T16:57:08.264Z,25.96
2018-09-11T16:59:37.947Z,25.90
2018-09-11T17:02:07.651Z,25.84
2018-09-11T17:04:37.595Z,25.80
2018-09-11T17:07:07.454Z,25.76
2018-09-11T17:09:35.650Z,25.70
2018-09-11T17:12:03.850Z,25.64
2018-09-11T17:14:32.595Z,25.58
2018-09-11T17:17:01.511Z,25.51
2018-09-11T17:19:29.150Z,25.46
2018-09-11T17:21:57.635Z,25.40
2018-09-11T17:24:26.556Z,25.34
2018-09-11T17:26:55.329Z,25.29
2018-09-11T17:29:25.877Z,25.20
2018-09-11T17:31:54.759Z,25.11
2018-09-11T17:34:24.652Z,25.03
2018-09-11T17:37:00.565Z,24.96
2018-09-11T17:39:29.366Z,24.87
2018-09-11T17:41:58.527Z,24.78
2018-09-11T17:44:29.225Z,24.69
2018-09-11T17:46:56.808Z,24.60
2018-09-11T17:49:25.527Z,24.49
2018-09-11T17:51:58.655Z,24.39
2018-09-11T17:54:26.475Z,24.29
2018-09-11T17:56:55.331Z,24.19
2018-09-11T17:59:24.520Z,24.12
2018-09-11T18:01:54.365Z,24.05
2018-09-11T18:04:22.912Z,23.99
2018-09-11T18:06:50.561Z,23.93
2018-09-11T18:09:18.501Z,23.91
2018-09-11T18:11:46.309Z,23.87
2018-09-11T18:14:15.277Z,23.81
2018-09-11T18:16:45.215Z,23.73
2018-09-11T18:19:13.365Z,23.63
2018-09-11T18:21:43.040Z,23.52
2018-09-11T18:24:12.254Z,23.40
2018-09-11T18:26:41.513Z,23.28
2018-09-11T18:29:09.778Z,23.19
2018-09-11T18:31:39.630Z,23.12
2018-09-11T18:34:08.719Z,23.04
2018-09-11T18:36:36.388Z,22.97
2018-09-11T18:41:46.148Z,22.85
2018-09-11T18:44:15.726Z,22.77
2018-09-11T18:46:43.407Z,22.71
2018-09-11T18:49:11.030Z,22.64
2018-09-11T18:51:39.385Z,22.59
2018-09-11T18:54:06.917Z,22.55
2018-09-11T18:56:34.521Z,22.49
2018-09-11T18:59:02.487Z,22.45
2018-09-11T19:01:30.471Z,22.39
2018-09-11T19:03:58.050Z,22.34
2018-09-11T19:06:26.088Z,22.26
2018-09-11T19:08:53.800Z,22.22
2018-09-11T19:11:22.518Z,22.18
2018-09-11T19:13:51.060Z,22.12
2018-09-11T19:16:20.348Z,22.07
2018-09-11T19:18:53.068Z,22.00
2018-09-11T19:21:20.598Z,21.98
2018-09-11T19:23:49.414Z,21.97
2018-09-11T19:26:20.346Z,21.96
2018-09-11T19:28:49.644Z,21.91
2018-09-11T19:31:18.833Z,21.91
2018-09-11T19:33:47.388Z,21.89
2018-09-11T19:36:15.262Z,21.88
2018-09-11T19:38:42.839Z,21.83
2018-09-11T19:41:11.767Z,21.80
2018-09-11T19:43:39.322Z,21.79
2018-09-11T19:46:09.220Z,21.79
2018-09-11T19:48:39.097Z,21.79
2018-09-11T19:51:07.268Z,21.75
2018-09-11T19:53:36.983Z,21.73
2018-09-11T19:56:06.146Z,21.71
2018-09-11T19:58:34.695Z,21.71
2018-09-11T20:01:07.072Z,21.68
2018-09-11T20:03:35.690Z,21.66
2018-09-11T20:06:04.198Z,21.61
2018-09-11T20:08:31.709Z,21.58
2018-09-11T20:10:59.535Z,21.54
2018-09-11T20:13:27.035Z,21.52
2018-09-11T20:15:54.546Z,21.48
2018-09-11T20:18:23.850Z,21.44
2018-09-11T20:20:52.249Z,21.41
2018-09-11T20:23:20.385Z,21.39
2018-09-11T20:25:49.934Z,21.40
2018-09-11T20:28:17.465Z,21.42
2018-09-11T20:30:46.465Z,21.48
2018-09-11T20:33:14.686Z,21.53
2018-09-11T20:35:44.878Z,21.60
2018-09-11T20:38:13.458Z,21.62
2018-09-11T20:40:41.630Z,21.66
2018-09-11T20:43:10.503Z,21.70
2018-09-11T20:45:38.086Z,21.72
2018-09-11T20:48:08.842Z,21.73
2018-09-11T20:50:38.124Z,21.75
2018-09-11T20:53:06.443Z,21.79
2018-09-11T20:55:34.449Z,21.84
2018-09-11T20:58:03.619Z,21.90
2018-09-11T21:00:37.382Z,21.95
2018-09-11T21:03:06.789Z,21.97
2018-09-11T21:05:34.348Z,21.97
2018-09-11T21:10:30.059Z,22.00
2018-09-11T21:12:57.598Z,22.07
2018-09-11T21:15:26.010Z,22.10
2018-09-11T21:17:53.949Z,22.09
2018-09-11T21:20:26.470Z,22.05
2018-09-11T21:22:57.356Z,22.02
2018-09-11T21:25:28.493Z,22.00
2018-09-11T21:27:56.096Z,22.01
2018-09-11T21:30:24.136Z,21.99
2018-09-11T21:32:54.337Z,21.97
2018-09-11T21:35:21.838Z,21.93
2018-09-11T21:37:49.369Z,21.92
2018-09-11T21:40:18.125Z,21.88
2018-09-11T21:42:45.649Z,21.84
2018-09-11T21:45:15.118Z,21.80
2018-09-11T21:47:46.744Z,21.77
2018-09-11T21:50:15.880Z,21.72
2018-09-11T21:52:43.414Z,21.71
2018-09-11T21:55:11.393Z,21.68
2018-09-11T21:57:39.729Z,21.67
2018-09-11T22:00:08.055Z,21.64
2018-09-11T22:02:36.034Z,21.63
2018-09-11T22:05:03.533Z,21.59
2018-09-11T22:07:33.277Z,21.58
2018-09-11T22:10:01.158Z,21.55
2018-09-11T22:12:29.288Z,21.51
2018-09-11T22:14:56.787Z,21.49
2018-09-11T22:17:25.573Z,21.47
2018-09-11T22:19:54.097Z,21.46
2018-09-11T22:22:21.610Z,21.49
2018-09-11T22:24:49.517Z,21.51
2018-09-11T22:27:17.063Z,21.51
2018-09-11T22:29:44.587Z,21.49
2018-09-11T22:32:12.122Z,21.45
2018-09-11T22:34:40.297Z,21.40
2018-09-11T22:37:08.771Z,21.34
2018-09-11T22:39:38.189Z,21.29
2018-09-11T22:42:06.568Z,21.23
2018-09-11T22:44:35.419Z,21.22
2018-09-11T22:47:02.953Z,21.17
2018-09-11T22:49:30.838Z,21.14
2018-09-11T22:51:58.350Z,21.09
2018-09-11T22:54:25.879Z,21.04
2018-09-11T22:56:53.936Z,21.02
2018-09-11T22:59:21.425Z,21.01
2018-09-11T23:01:48.958Z,20.99
2018-09-11T23:04:17.461Z,20.98
2018-09-11T23:06:45.365Z,20.93
2018-09-11T23:09:13.110Z,20.87
2018-09-11T23:11:40.631Z,20.85
2018-09-11T23:14:08.395Z,20.83
2018-09-11T23:16:36.204Z,20.85
2018-09-11T23:19:04.320Z,20.82
2018-09-11T23:21:31.831Z,20.80
2018-09-11T23:23:59.348Z,20.78
2018-09-11T23:26:27.244Z,20.72
2018-09-11T23:28:55.567Z,20.66
2018-09-11T23:31:23.106Z,20.59
2018-09-11T23:33:50.682Z,20.50
2018-09-11T23:36:18.542Z,20.42
2018-09-11T23:38:47.072Z,20.39
2018-09-11T23:41:14.666Z,20.43
2018-09-11T23:43:42.638Z,20.46
2018-09-11T23:46:10.147Z,20.47
2018-09-11T23:48:37.661Z,20.47
2018-09-11T23:51:05.733Z,20.48
2018-09-11T23:53:33.259Z,20.50
2018-09-11T23:56:02.085Z,20.50
2018-09-11T23:58:30.108Z,20.50
